Airfield :
LOGIN :

Register | Disclaimer

   EN    FR    IT 

 










Legend :    VFR   Marginal VFR   IFR   Intensive IFR   Very Intensive IFR
Visi :
Ceiling :
>= 8 km
>= 3000ft
5 to 8 km
1000 to 3000 ft
1500m to 5 km
500 to 1000 ft
800 to 1500m
200 to 500 ft
< 800m
< 200 ft
Symbols :   Thunderstorms  Fog  Heavy snow  Heavy precipitations  Wind > 20 kt
SIGMETs :     Misc.  Thunderstorms  Icing  Turbulence  Mountain Waves  Volcanic Ashes






- Airport Elevation : 124 ft
- IATA code : NHT


EGWU - RAF Northolt

CURRENT METAR :
  • 030050Z AUTO 08006KT 0300 // VV/// 04/04 Q1029

EXPIRED METARs :
  • 022350Z AUTO 07005KT 1400 // BKN001/// SCT130/// 04/04 Q1029
  • 022250Z AUTO 03005KT 3300 // BKN120/// 03/02 Q1029

TAF TAF EGWU
Valid from the 02 at 21:00 until the 03 at 15:00 UTC


021941Z 0221/0315 05004KT 6000 HZ NSC
BECMG 0221/0224 4000 BKN005
PROB40 0301/0310 3000 BR BKN004
PROB30 0303/0309 1500 BR BKN002
BECMG 0310/0313 6000 HZ FEW010 SCT040
TEMPO 0313/0315 9000 SCT012



MET'MAP, your aeronautical weather chart ! - Copyright ORBIFLY December 2007 - Disclaimer

ORBIFLY MET'MAP TEAM :

Programming & Development : Alexandra Zaïnal
Concept & original design : Baudouin d'Aumeries
Assistance for programming : Marc-Olivier Méhu
Technical & hardware support : Manuel Goepfert

Contact : metmap@orbifly.com




SOURCES & CREDITS :

   NOAA